Enduro des Abeilles > Results

18 March 2018 @ Saint Romain en Viennois (84)
Enduro • Moto Club Saint Romanais • LIGUE DE PROVENCE

270 participants

 

Results

  1. scratch Elite
  2. SCRATCH LIGUE 1
  3. SCRATCH LIGUE 2
  4. SCRATCH LIGUE 3
  5. SCRATCH FEMININE

SCRATCH LIGUE 1

Place Number Participant Rg/sc Pénalité Temps Ecart ES1 ES2 ES3 ES4 ES5 ES6 ES7 ES8
1 126 DUPIC Yann Ligue 1 E1 1 26:40.77 5:03.41 2:08.94 2:51.76 4:58.38 2:01.74 2:49.98 4:49.57 1:56.99
2 125 POIROT Fabien Ligue 1 E1 2 27:24.97 44.20 5:36.56 2:02.89 2:51.12 5:11.85 1:56.12 2:44.93 5:01.19 2:00.31
3 599 POCCHIOLA Olivier Ligue 1 Vétéran 1 27:30.10 49.33 5:31.53 2:12.48 2:47.64 5:15.61 2:01.63 2:47.68 4:54.65 1:58.88
4 256 SASSOLAS Nicolas Ligue 1 E2 1 27:44.88 1:04.11 5:18.43 2:13.33 2:50.24 5:21.76 2:04.94 2:46.27 5:10.28 1:59.63
5 320 PORTE BAZIN Joris Ligue 1 E3 1 27:47.57 1:06.80 5:11.94 2:11.50 2:50.52 5:35.91 2:02.81 2:52.34 5:03.96 1:58.59
6 108 ICHARD Loic Ligue 1 E1 3 27:58.29 1:17.52 5:33.52 2:14.13 2:53.58 5:09.05 2:13.25 2:51.05 4:59.70 2:04.01
7 311 WENDEROTH Victor Ligue 1 E3 2 27:59.62 1:18.85 5:17.30 2:16.87 2:57.33 5:15.29 2:05.14 2:52.12 5:14.44 2:01.13
8 240 CHASTAN Damien Ligue 1 E2 2 28:08.82 1:28.05 5:24.42 2:15.84 2:53.65 5:30.60 2:05.86 2:48.33 5:03.48 2:06.64
9 109 DOLCI Mathias Ligue 1 E1 4 28:09.89 1:29.12 5:35.38 2:13.31 2:57.40 5:16.53 2:04.49 2:55.67 5:06.34 2:00.77
10 257 JEANJEAN Gael Ligue 1 E2 3 28:13.79 1:33.02 5:25.83 2:11.67 2:51.23 5:23.39 2:04.77 2:48.52 5:27.98 2:00.40
11 100 DJEBARI Dorian Ligue 1 E1 5 28:23.42 1:42.65 5:32.85 2:13.99 2:55.25 5:29.55 2:04.53 2:52.64 5:10.43 2:04.18
12 301 MARTINEZ Gregory Ligue 1 E3 3 10.0 28:30.47 1:49.70 5:29.85 2:14.74 2:56.43 5:31.64 2:01.88 2:51.62 5:16.87 1:57.44
13 626 ESTELLE Christophe Ligue 1 Vétéran II 1 28:36.04 1:55.27 5:38.52 2:10.88 2:57.61 5:27.36 2:04.61 2:55.96 5:17.84 2:03.26
14 260 BERNARD Hugo Ligue 1 E2 4 28:40.26 1:59.49 5:33.40 2:16.18 2:58.73 5:39.63 2:04.63 2:51.03 5:15.66 2:01.00
15 152 SANNA Loic Ligue 1 E1 6 28:41.23 2:00.46 5:25.71 2:17.06 3:00.20 5:23.21 2:00.90 3:00.05 5:30.90 2:03.20
16 252 CHAUVIN Brice Ligue 1 E2 5 28:53.00 2:12.23 5:19.92 2:22.20 2:53.68 5:16.84 2:30.63 2:48.67 5:32.47 2:08.59
17 216 ROUGON Jerome Ligue 1 E2 6 28:58.00 2:17.23 5:18.01 2:16.67 2:51.84 5:11.92 2:01.62 3:00.37 6:13.36 2:04.21
18 597 UGOLINI Xavier Ligue 1 Vétéran 2 28:59.38 2:18.61 5:35.41 2:25.11 2:51.48 5:29.26 2:08.59 2:53.02 5:29.97 2:06.54
19 600 LAFFONT Eric Ligue 1 Vétéran 3 29:01.29 2:20.52 5:42.28 2:15.97 2:56.65 5:34.15 2:10.04 2:52.93 5:20.70 2:08.57
20 584 ROUX Jean Emmanuel Ligue 1 Vétéran 4 29:07.09 2:26.32 5:23.14 2:07.06 2:59.72 5:06.51 2:00.64 2:52.53 6:38.82 1:58.67
21 243 ROLLAND Loic Ligue 1 E2 7 29:08.55 2:27.78 5:42.80 2:15.99 2:57.61 5:43.36 2:10.38 2:50.70 5:20.10 2:07.61
22 295 COJEAN Sebastien Ligue 1 E2 8 29:14.29 2:33.52 5:26.85 2:24.79 3:01.72 5:54.63 2:09.71 2:54.31 5:18.13 2:04.15
23 370 BRES Rocco Ligue 1 E3 4 29:21.68 2:40.91 5:30.96 2:17.41 3:00.54 6:10.52 2:12.03 2:57.50 5:12.00 2:00.72
24 111 GRANDORDY Lilian Ligue 1 E1 7 29:22.00 2:41.23 5:33.42 2:16.74 2:54.91 5:41.65 2:34.98 2:53.82 5:20.59 2:05.89
25 209 CANONNE Arthur Ligue 1 E2 9 29:27.07 2:46.30 5:26.81 2:36.65 2:55.07 5:29.00 2:09.72 2:53.18 5:54.18 2:02.46
26 200 PASQUIER Laurent Ligue 1 E2 10 29:28.09 2:47.32 5:23.26 2:16.49 2:58.58 5:56.54 2:04.86 2:59.41 5:45.34 2:03.61
27 624 VIEU Didier Ligue 1 Vétéran 5 29:45.88 3:05.11 6:15.51 2:21.47 2:55.13 5:38.33 2:14.17 2:52.29 5:23.52 2:05.46
28 226 BENEZECH Morgan Ligue 1 E2 11 29:55.03 3:14.26 5:38.99 2:29.01 3:05.87 5:32.64 2:12.05 3:00.30 5:24.22 2:31.95
29 556 HUMBERT Olivier Ligue 1 Vétéran II 2 29:56.57 3:15.80 5:59.79 2:28.91 3:00.76 5:50.57 2:05.43 2:53.13 5:35.26 2:02.72
30 110 SANCHEZ Tony Ligue 1 E1 8 29:58.72 3:17.95 5:57.49 2:22.07 3:07.05 5:37.34 2:10.34 3:06.90 5:30.89 2:06.64
31 124 PONTHET Olivier Ligue 1 E1 9 30:00.26 3:19.49 5:36.50 2:35.47 3:05.00 5:49.47 2:15.10 3:00.69 5:28.79 2:09.24
32 205 BUREL Vincent Ligue 1 E2 12 30:04.04 3:23.27 5:26.95 2:31.45 2:58.34 5:38.16 2:18.10 3:00.87 5:23.52 2:46.65
33 127 MAZA Robin Ligue 1 E1 10 30:06.54 3:25.77 6:09.87 2:07.89 2:51.66 5:42.69 2:03.34 2:52.74 6:18.19 2:00.16
34 552 FAURE Sebastien Ligue 1 Vétéran 6 30:07.28 3:26.51 5:50.88 2:27.31 3:06.03 6:03.24 2:09.49 2:59.08 5:27.01 2:04.24
35 254 RAYNAUD Mathieu Ligue 1 E2 13 30:14.31 3:33.54 5:44.79 2:21.65 3:00.96 5:45.21 2:13.50 3:00.91 5:50.53 2:16.76
36 232 REYMOND Raphael Ligue 1 E2 14 30:16.25 3:35.48 5:49.48 2:23.07 3:05.14 5:54.23 2:18.27 3:00.76 5:37.29 2:08.01
37 615 VIDAL Bruno Ligue 1 Vétéran 7 30:24.05 3:43.28 5:40.82 2:20.03 2:58.31 5:55.56 2:08.58 2:54.99 6:08.14 2:17.62
38 221 DEWEIRDT Michael Ligue 1 E2 15 30:24.09 3:43.32 5:24.27 2:20.88 2:58.47 5:36.70 2:13.15 2:54.65 6:47.05 2:08.92
39 210 MUTTE Guillaume Ligue 1 E2 16 30:24.50 3:43.73 5:38.71 2:30.00 3:19.40 5:35.74 2:15.82 3:08.57 5:44.88 2:11.38
40 579 ALLAVENA Lionel Ligue 1 Vétéran 8 30:26.30 3:45.53 6:11.65 2:20.50 3:10.76 5:50.00 2:09.25 2:50.74 5:44.80 2:08.60
41 560 FEDORKO Michel Ligue 1 Vétéran II 3 30:29.47 3:48.70 5:40.67 2:33.16 3:07.73 5:35.07 2:36.81 3:06.15 5:35.14 2:14.74
42 603 HUBER Eric Ligue 1 Vétéran 9 30:29.95 3:49.18 5:35.75 2:13.06 2:50.67 5:22.45 2:04.87 2:49.50 7:32.22 2:01.43
43 305 OLLIVE Yannick Ligue 1 E3 5 30:30.36 3:49.59 5:39.79 2:21.74 3:07.61 5:53.60 2:13.52 3:00.18 6:00.39 2:13.53
44 299 ABEL Olivier Ligue 1 E2 17 30:36.27 3:55.50 5:47.37 2:22.65 3:01.05 6:22.05 2:12.10 2:59.35 5:39.79 2:11.91
45 105 PEREZ Fabien Ligue 1 E1 11 30:39.10 3:58.33 6:07.05 2:12.24 3:02.31 6:10.00 2:06.97 2:56.11 6:02.12 2:02.30
46 145 GAMON Stephane Ligue 1 E1 12 30:40.64 3:59.87 5:55.24 2:22.81 3:01.71 6:13.05 2:13.05 3:01.56 5:45.54 2:07.68
47 651 SABATIER Sylvain Ligue 1 Vétéran 10 30:41.15 4:00.38 6:09.27 2:24.49 3:11.92 5:47.51 2:18.47 3:06.13 5:30.44 2:12.92
48 222 VOUT Gregory Ligue 1 E2 18 30:48.00 4:07.23 5:49.75 2:23.78 3:06.08 5:55.20 2:14.36 3:00.05 6:03.99 2:14.79
49 251 AJASSE Julian Ligue 1 E2 19 30:55.01 4:14.24 5:49.34 2:27.89 3:25.19 5:18.65 2:39.23 3:03.11 6:00.51 2:11.09
50 610 JOHANN Norbert Ligue 1 Vétéran 11 30:55.71 4:14.94 6:46.42 2:20.04 3:03.21 5:46.66 2:14.04 2:59.88 5:33.54 2:11.92
51 303 RICHAUD Jordan Ligue 1 E3 6 30:56.66 4:15.89 5:50.36 2:24.42 3:02.36 6:12.15 2:06.31 3:02.30 6:12.96 2:05.80
52 130 MONTEIRO Remi Ligue 1 E1 13 30:56.67 4:15.90 5:50.91 2:23.52 3:08.16 6:00.14 2:14.91 3:11.92 5:55.41 2:11.70
53 575 MANNUCCI Alain Ligue 1 Vétéran 12 31:05.39 4:24.62 6:21.58 2:18.28 3:02.10 6:04.77 2:08.80 3:02.04 6:05.77 2:02.05
54 297 RECORDIER Nicolas Ligue 1 E2 20 31:06.06 4:25.29 6:18.44 2:24.41 3:05.27 6:03.56 2:19.95 3:03.76 5:38.30 2:12.37
55 150 VIVENZIO Warren Ligue 1 E1 14 31:15.37 4:34.60 6:54.72 2:17.46 3:00.36 6:05.76 2:09.68 3:00.74 5:36.63 2:10.02
56 219 JULIEN Ludovic Ligue 1 E2 21 31:15.80 4:35.03 5:43.74 2:22.25 2:58.33 5:50.66 2:13.30 2:49.36 7:10.52 2:07.64
57 147 MARCI Jordan Ligue 1 E1 15 31:16.05 4:35.28 6:14.92 2:37.00 3:03.94 6:01.66 2:12.61 3:02.74 5:48.26 2:14.92
58 302 ROBERT Eddy Ligue 1 E3 7 31:19.03 4:38.26 5:44.75 2:23.73 3:03.71 6:40.76 2:14.78 3:01.88 5:49.19 2:20.23
59 215 BORG COSTES Ludovic Ligue 1 E2 22 31:19.38 4:38.61 5:58.31 2:27.35 3:14.46 6:00.16 2:20.11 3:04.71 6:00.29 2:13.99
60 616 VIDAL Joel Ligue 1 Vétéran 13 31:24.09 4:43.32 6:05.69 2:27.31 3:10.51 6:04.61 2:22.90 3:07.04 5:47.17 2:18.86
61 650 GAUCHERAND Laurent Ligue 1 Vétéran 14 31:29.42 4:48.65 6:13.68 2:25.71 3:12.29 6:24.83 2:11.19 3:06.46 5:42.77 2:12.49
62 262 MOREL Dorian Ligue 1 E2 23 31:30.96 4:50.19 5:38.62 2:20.51 3:01.88 7:10.07 2:09.01 2:58.55 6:00.89 2:11.43
63 114 PELISSIE Alexis Ligue 1 E1 16 31:35.36 4:54.59 5:58.05 2:16.65 3:18.52 6:50.05 2:10.87 3:14.64 5:38.71 2:07.87
64 564 OLIVIER Frederic Ligue 1 Vétéran II 4 31:37.49 4:56.72 6:12.00 2:31.83 3:06.87 6:11.03 2:16.46 3:05.82 5:59.25 2:14.23
65 304 GIBERT Christopher Ligue 1 E3 8 31:42.75 5:01.98 6:12.41 2:21.77 3:05.18 6:22.55 2:13.59 3:04.92 6:13.56 2:08.77
66 148 BOUVEYRON Quentin Ligue 1 E1 17 31:43.65 5:02.88 8:01.51 2:15.63 2:59.57 5:46.17 2:07.62 2:58.04 5:20.05 2:15.06
67 237 COMBA David Ligue 1 E2 24 31:55.72 5:14.95 5:46.12 2:27.80 3:11.40 6:12.45 2:26.40 3:08.72 6:18.96 2:23.87
68 201 REYNAUD Yannick Ligue 1 E2 25 31:59.27 5:18.50 5:38.98 2:24.97 3:01.17 5:37.76 2:33.24 2:58.31 7:36.55 2:08.29
69 229 ANTHOUARD Alexandre Ligue 1 E2 26 32:05.64 5:24.87 5:51.04 2:28.93 3:05.92 6:13.95 2:16.58 3:04.89 6:52.83 2:11.50
70 255 BEVENGUT Wilfrid Ligue 1 E2 27 32:26.26 5:45.49 6:20.54 2:45.75 3:01.63 6:32.96 2:12.43 2:58.39 6:29.32 2:05.24
71 562 CORNILLE Eric Ligue 1 Vétéran II 5 32:27.12 5:46.35 6:20.24 2:23.49 3:06.63 7:04.90 2:16.60 3:09.76 5:51.45 2:14.05
72 618 MATTIOLI Jean Michel Ligue 1 Vétéran 15 32:28.21 5:47.44 6:32.96 2:31.42 3:04.75 6:21.60 2:18.75 3:00.79 6:21.66 2:16.28
73 577 SAVOYE Jean Marc Ligue 1 Vétéran II 6 32:31.32 5:50.55 6:53.49 2:23.84 3:10.50 6:24.94 2:14.28 3:03.82 6:08.74 2:11.71
74 253 CARDONA Geoffrey Ligue 1 E2 28 32:32.49 5:51.72 6:32.37 2:22.46 3:10.27 6:20.33 2:24.37 3:07.79 6:20.47 2:14.43
75 555 DEGIOVANNI Jean Luc Ligue 1 Vétéran II 7 32:39.43 5:58.66 6:29.28 2:26.60 3:08.43 6:45.95 2:22.04 3:06.03 6:06.55 2:14.55
76 591 MIRETE Cyril Ligue 1 Vétéran 16 32:42.74 6:01.97 5:57.79 2:22.63 3:03.74 7:58.03 2:24.00 2:57.26 5:46.81 2:12.48
77 155 BUISAN Sylvain Ligue 1 E1 18 32:50.77 6:10.00 6:46.60 2:22.76 3:05.56 6:29.73 2:27.66 3:03.78 6:15.63 2:19.05
78 573 SCHENKEL Philippe Ligue 1 Vétéran II 8 32:52.91 6:12.14 7:01.57 2:34.94 3:07.64 6:36.19 2:18.97 3:01.09 5:55.40 2:17.11
79 317 TRAMIER Franck Ligue 1 E3 9 32:57.32 6:16.55 6:06.83 2:28.03 3:14.16 6:19.96 2:33.65 3:11.94 5:58.50 3:04.25
80 104 NALESSO Anthony Ligue 1 E1 19 32:59.32 6:18.55 6:12.45 2:31.57 3:01.53 6:26.18 2:38.37 3:04.05 6:51.83 2:13.34
81 308 WLODARCZAK Alexandre Ligue 1 E3 10 32:59.38 6:18.61 6:12.07 2:25.08 3:11.87 7:26.71 2:26.56 3:00.89 6:09.69 2:06.51
82 312 JAYET Julien Ligue 1 E3 11 33:00.08 6:19.31 6:27.37 2:42.09 3:09.74 6:33.89 2:30.81 3:05.81 6:05.35 2:25.02
83 611 MERLE Pascal Ligue 1 Vétéran II 9 33:02.85 6:22.08 6:18.25 2:27.87 3:02.94 7:27.59 2:37.83 2:59.19 5:58.01 2:11.17
84 570 MANDREA Sebastien Ligue 1 Vétéran 17 33:04.33 6:23.56 6:14.20 2:30.01 3:08.19 5:40.24 2:12.33 3:02.69 8:07.36 2:09.31
85 131 GAGLIO Romain Ligue 1 E1 20 33:05.29 6:24.52 6:35.38 2:23.93 3:06.04 6:57.66 2:26.27 3:03.80 6:15.51 2:16.70
86 236 LEJEUNE Hugo Ligue 1 E2 29 10.0 33:12.02 6:31.25 5:20.72 2:32.09 3:09.24 5:30.96 2:11.04 2:58.11 9:02.51 2:17.35
87 103 GIANINI Cyril Ligue 1 E1 21 33:17.75 6:36.98 6:19.95 2:31.00 3:07.47 6:47.94 2:18.02 3:25.99 6:30.84 2:16.54
88 238 VAN DER SLIKKE Jannis Ligue 1 E2 30 33:27.35 6:46.58 5:59.18 2:46.26 3:09.71 6:33.57 2:26.17 3:04.94 7:08.38 2:19.14
89 553 RICHARD Thierry Ligue 1 Vétéran 18 33:28.08 6:47.31 7:24.19 2:43.28 3:16.16 6:24.92 2:20.32 3:09.03 5:58.03 2:12.15
90 608 CAZZULO Marc Ligue 1 Vétéran II 10 1:00.0 33:28.20 6:47.43 6:59.40 2:34.61 3:05.20 6:18.08 2:22.93 2:59.68 5:55.32 2:12.98
91 571 BAUDET Christophe Ligue 1 Vétéran II 11 33:28.22 6:47.45 6:21.05 2:30.89 3:05.70 6:11.28 2:26.24 3:04.56 7:20.11 2:28.39
92 607 COTTE Christophe Ligue 1 Vétéran II 12 33:28.40 6:47.63 6:26.87 2:28.95 3:14.12 6:41.34 2:18.52 3:14.55 6:46.75 2:17.30
93 318 PERINI Hugo Ligue 1 E3 12 33:30.98 6:50.21 6:16.92 2:50.95 3:17.98 6:37.62 2:27.12 3:17.45 6:20.75 2:22.19
94 319 SABATIER Benjamin Ligue 1 E3 13 33:33.88 6:53.11 6:46.36 2:48.87 3:09.81 6:43.54 2:22.28 3:08.27 6:15.21 2:19.54
95 655 ARNAUD Laurent Ligue 1 Vétéran II 13 33:44.21 7:03.44 6:29.38 2:24.72 3:08.25 6:34.17 2:20.45 3:04.37 7:22.35 2:20.52
96 563 PELLEGRINO Laurent Ligue 1 Vétéran II 14 33:45.82 7:05.05 6:25.20 2:29.95 3:13.43 7:15.01 2:22.12 3:07.61 6:16.90 2:35.60
97 220 HILAIRE Cedric Ligue 1 E2 31 33:46.29 7:05.52 5:35.36 2:37.85 3:14.47 6:40.55 2:28.41 3:10.02 7:37.10 2:22.53
98 258 COURTY Romain Ligue 1 E2 32 33:53.34 7:12.57 6:41.37 2:29.86 3:16.62 6:39.98 2:23.51 3:14.05 6:47.12 2:20.83
99 231 ORHANT Freddy Ligue 1 E2 33 34:12.14 7:31.37 5:38.45 2:31.00 3:08.26 8:01.02 2:21.24 3:03.67 7:00.56 2:27.94
100 245 JACQUEMIN Christophe Ligue 1 E2 34 10.0 34:12.37 7:31.60 7:10.69 2:41.18 3:13.57 6:31.81 2:21.97 3:12.66 6:32.46 2:18.03
101 561 RICHAUD Luc Ligue 1 Vétéran II 15 34:14.55 7:33.78 6:29.47 2:24.86 3:10.15 7:17.04 2:36.29 3:14.09 6:38.54 2:24.11
102 594 DEGUILHEM Laurent Ligue 1 Vétéran 19 34:19.89 7:39.12 7:14.94 2:34.60 3:25.99 6:48.86 2:28.70 3:21.02 6:03.17 2:22.61
103 154 DAUDET Julien Ligue 1 E1 22 34:22.51 7:41.74 6:45.30 3:01.94 3:23.96 6:36.18 2:28.45 3:18.68 6:26.19 2:21.81
104 550 BELLIER Olivier Ligue 1 Vétéran 20 34:23.37 7:42.60 6:56.22 2:49.67 3:14.05 6:52.12 2:34.39 3:15.72 6:18.63 2:22.57
105 223 BUSCAJA Jean Michel Ligue 1 E2 35 34:23.65 7:42.88 6:07.29 3:11.02 3:34.00 6:26.89 2:44.12 3:22.67 6:30.24 2:27.42
106 581 CROUAU Francois-Jerome Ligue 1 Vétéran 21 34:28.23 7:47.46 7:39.68 2:33.79 3:12.74 6:59.46 2:18.28 3:09.10 6:15.20 2:19.98
107 153 FEUILLADE Marc-Philippe Ligue 1 E1 23 34:31.71 7:50.94 6:58.16 2:40.95 3:32.57 6:34.70 2:37.98 3:22.81 6:20.71 2:23.83
108 574 BELMON Stephane Ligue 1 Vétéran II 16 34:48.28 8:07.51 9:10.25 2:27.12 3:07.78 6:22.11 2:19.12 3:04.47 6:00.10 2:17.33
109 653 DEGIOVANNI Stephane Ligue 1 Vétéran II 17 34:50.80 8:10.03 6:51.22 2:55.26 3:22.04 6:38.89 2:31.09 3:18.11 6:38.07 2:36.12
110 246 DAUDE Florent Ligue 1 E2 36 10.0 34:55.70 8:14.93 6:53.24 2:29.89 3:15.22 7:04.32 2:22.26 3:11.95 7:11.54 2:17.28
111 309 LARTIGUE Antony Ligue 1 E3 14 35:01.70 8:20.93 6:28.02 2:31.55 3:10.86 6:16.35 2:20.55 3:06.20 8:49.02 2:19.15
112 244 MORELLI Leo Ligue 1 E2 37 35:17.55 8:36.78 6:23.27 3:07.53 3:16.31 6:25.19 2:25.49 3:13.05 8:00.62 2:26.09
113 658 IMBERT Bruno Ligue 1 Vétéran II 18 35:25.57 8:44.80 6:45.59 2:31.32 3:18.79 7:33.89 2:27.00 3:13.36 7:09.13 2:26.49
114 642 SCHIAVONE Patrick Ligue 1 Vétéran II 19 35:37.91 8:57.14 6:28.40 2:28.79 3:09.08 7:50.16 2:22.05 3:07.36 7:12.04 3:00.03
115 324 ROGLIANO Pascal Ligue 1 E3 15 35:42.42 9:01.65 8:01.57 2:34.49 3:22.58 6:47.06 2:26.96 3:24.66 6:41.77 2:23.33
116 321 GALLOPPE Paco Ligue 1 E3 16 35:52.27 9:11.50 7:03.38 2:49.30 3:22.72 6:46.19 2:32.75 3:24.87 7:13.88 2:39.18
117 605 FRITZ Emmanuel Ligue 1 Vétéran 22 35:54.27 9:13.50 7:34.79 2:48.08 3:21.91 6:48.69 2:25.89 3:24.97 7:01.94 2:28.00
118 351 BRUNIAUX Anthony Ligue 1 E3 17 36:01.57 9:20.80 8:20.21 2:32.04 3:17.91 7:02.94 2:19.74 3:14.73 6:56.77 2:17.23
119 596 DA SILVA FRANCISCO Tony Ligue 1 Vétéran 23 36:01.77 9:21.00 8:08.67 2:43.22 3:22.53 7:10.02 2:25.81 3:26.49 6:23.58 2:21.45
120 106 VOEGTLIN Florian Ligue 1 E1 24 36:08.60 9:27.83 8:26.63 2:26.67 3:09.00 7:00.19 2:43.58 3:09.06 6:55.32 2:18.15
121 102 TRAVERSA Lucas Ligue 1 E1 25 36:24.82 9:44.05 9:07.97 2:33.63 3:08.89 7:27.15 2:17.22 3:05.97 6:25.27 2:18.72
122 239 CHASTAN Mathieu Ligue 1 E2 38 2:00.0 36:28.63 9:47.86 6:46.33 2:32.02 3:14.78 7:40.52 2:23.51 3:12.34 6:17.42 2:21.71
123 259 BAECHLER Mike Ligue 1 E2 39 36:39.46 9:58.69 7:39.94 2:27.21 3:26.60 8:22.88 2:20.99 3:25.64 6:41.69 2:14.51
124 622 PERRITAZ Guillaume Ligue 1 Vétéran 24 36:40.82 10:00.05 6:34.59 2:41.54 3:11.93 6:30.05 2:23.08 3:09.86 9:42.72 2:27.05
125 134 TOURNISSOUX Jeremy Ligue 1 E1 26 36:46.07 10:05.30 8:35.00 2:55.00 3:21.48 7:08.24 2:25.67 3:08.72 6:28.41 2:43.55
126 128 JULIEN Charly Ligue 1 E1 27 37:17.11 10:36.34 6:55.46 2:31.06 3:22.52 9:38.56 2:23.10 3:31.26 6:33.32 2:21.83
127 242 VIALIS Julien Ligue 1 E2 40 10.0 37:24.73 10:43.96 7:04.38 2:44.25 3:29.89 7:38.59 2:34.96 3:24.64 7:51.88 2:26.14
128 213 CORNIOLO Cedric Ligue 1 E2 41 37:46.62 11:05.85 7:37.79 2:44.78 3:37.39 7:17.37 2:33.77 3:30.96 7:48.88 2:35.68
129 614 PETIT Eric Ligue 1 Vétéran II 20 1:00.0 37:47.23 11:06.46 7:09.33 2:32.92 3:20.36 7:24.71 2:26.55 3:20.17 8:10.31 2:22.88
130 149 MARIZON Nicolas Ligue 1 E1 28 37:47.70 11:06.93 7:05.81 3:00.91 3:24.49 7:48.80 2:48.65 3:16.36 7:12.95 3:09.73
131 350 MARIN-CUDRAZ Jeremy Ligue 1 E3 18 37:54.39 11:13.62 7:04.10 2:43.81 3:31.92 8:19.86 2:40.74 3:29.94 7:28.94 2:35.08
132 587 ROY Cyprien Ligue 1 Vétéran II 21 38:57.03 12:16.26 8:03.71 3:11.40 4:07.82 7:00.98 2:59.88 3:26.46 7:28.46 2:38.32
133 241 PAGAN Denis Ligue 1 E2 42 39:00.02 12:19.25 6:39.58 2:38.68 3:22.68 6:44.64 2:23.16 3:12.89 11:40.27 2:18.12
134 654 VASQUEZ DEL CORRO Thierry Ligue 1 Vétéran II 22 39:43.21 13:02.44 7:45.37 3:31.96 3:14.74 7:21.10 2:22.05 3:22.87 9:38.01 2:27.11
135 225 CHAMPEL Frederic Ligue 1 E2 43 39:55.64 13:14.87 7:09.74 3:26.44 3:40.69 7:14.77 3:36.40 3:45.40 7:55.30 3:06.90
136 151 OSMUK Gregory Ligue 1 E1 29 40:18.03 13:37.26 8:27.99 2:44.29 3:31.31 8:40.75 2:42.11 3:29.72 8:05.30 2:36.56
137 235 NICOLAS Julien Ligue 1 E2 44 42:24.11 15:43.34 6:04.80 2:49.31 3:12.30 8:03.48 2:43.60 3:14.95 13:53.74 2:21.93
138 578 MENARDO Jean Pierre Ligue 1 Vétéran II 23 5:00.0 42:41.39 16:00.62 7:48.68 3:02.52 3:31.48 6:54.37 3:06.40 3:32.14 6:51.44 2:54.36
139 118 GIUST Anthony Ligue 1 E1 30 42:50.84 16:10.07 6:59.44 2:38.87 3:32.20 7:24.98 2:41.92 3:27.56 13:26.01 2:39.86
140 228 RIBIERE Laurent Ligue 1 E2 45 43:00.05 16:19.28 8:45.88 3:01.19 3:41.20 10:00.86 2:48.91 3:39.76 8:34.19 2:28.06
141 115 BERGALA Antoine Ligue 1 E1 31 3:00.0 45:03.74 18:22.97 7:34.25 3:25.16 3:36.93 10:27.69 2:50.09 3:43.84 7:37.81 2:47.97
142 606 AMIGAS Frederic Ligue 1 Vétéran 25 2:45:00.0 3:19:03.07 2:52:22.30 7:14.32 2:35.82 3:22.19 6:25.47 2:25.90 3:13.56 6:28.41 2:17.40
602 CAMPANA Marc Ligue 1 Vétéran ... 8:26.25
202 GUILLOT Bastien Ligue 1 E2 ... 5:49.61 2:28.22 3:15.20 12:37.52
325 RICHARD Baptiste Ligue 1 E3 ... 6:15.85 2:24.62 3:02.75 9:01.01
313 DJEBARI Cyril Ligue 1 E3 ... 6:13.54 2:31.20 3:10.41 8:23.17
612 NEGRI Philippe Ligue 1 Vétéran II ... 7:39.20 2:36.96 3:29.51 7:07.32 2:24.69 3:27.61
224 VILOTTA Alexandre Ligue 1 E2 ... 6:15.93 3:15.54 3:44.97 7:39.24 2:28.68 3:20.18
227 SAURET Florent Ligue 1 E2 ... 6:02.84 2:34.04 3:14.44 6:17.69 2:21.20 3:11.57
250 BEAULIEU Jeremy Ligue 1 E2 ... 6:37.37 2:42.63 3:18.61 6:05.97 2:50.98 3:07.53
551 VERNHES Gael Ligue 1 Vétéran ... 6:25.79 2:55.46 3:11.35 6:35.10 2:43.50 3:09.00
156 PLATEAU Bastien Ligue 1 E1 ... 2:33.79 3:21.20 7:01.29 2:33.28 13:41:33.67
567 PELISSIE Yves Ligue 1 Vétéran II ... 6:22.90 2:28.12 3:28.62 7:11.95 2:58.55 3:23.06 7:15.52 3:02.09
298 BRUNEL Cedric Ligue 1 E2 ...
296 BENAZRA Nicolas Ligue 1 E2 ...
572 MARIN-CUDRAZ Stephane Ligue 1 Vétéran II ...
580 COUSTAURY Philippe Ligue 1 Vétéran II ... 13:29.44
588 DURIEZ Franck Ligue 1 Vétéran ... 8:45.80
568 BOURNAT Didier Ligue 1 Vétéran II ... 12:40.15
559 LAUMONIER Jerome Ligue 1 Vétéran II ... 8:11.70 2:39.61 3:24.90 10:26.57
218 VARENNES Yohann Ligue 1 E2 ... 9:29.45
233 SAILLET Julien Ligue 1 E2 ... 5:32.49 2:29.88 2:57.00
315 GIULIANO Jerome Ligue 1 E3 ... 6:27.93 2:36.74 3:30.46
643 GLOWACKI Francois Ligue 1 Vétéran II ... 9:36.44 2:37.95 3:29.05
566 GARCIA Thierry Ligue 1 Vétéran II ... 11:07.72 3:16.90 3:34.28
590 BARON Gael Ligue 1 Vétéran ... 7:58.14 2:54.07 3:45.60
101 DELFINO Mathys Ligue 1 E1 ... 7:55.23 3:22.65
565 HOFFER Jean-Bernard Ligue 1 Vétéran II ... 12:18.69 3:33.69
657 MILLET Stephane Ligue 1 Vétéran II ... 8:39.05 2:36.45 3:22.26
129 GARCIA Martin Ligue 1 E1 ... 10:04.07 4:03.17
204 ALAZARD Fabien Ligue 1 E2 ... 6:02.85
107 DI FUSCO Theo Ligue 1 E1 ... 6:18.25
310 GERVAIS Sylvain Ligue 1 E3 ... 6:49.37 4:02.21 3:18.64

- DNF : Do Not Finish (non arrivé)
- DNS : Do Not Start (non parti)